Time;durP1;ratioP1;P1;durP2;ratioP2;P2;SDS_P1;SDS_P2;PMS_P1;PMS_P2;Temp;Humidity;BMP_temperature;BMP_pressure;BME280_temperature;BME280_humidity;BME280_pressure;Samples;Min_cycle;Max_cycle;Signal;HPM_P1;HPM_P2
2021/12/19 00:00:07;;;;;;;10.27;7.90;;;;;;;3.41;96.05;99377.76;2146616;83;20953;-81
2021/12/19 00:09:44;;;;;;;12.07;8.57;;;;;;;3.41;96.09;99345.09;2146712;83;20996;-80
2021/12/19 00:12:45;;;;;;;8.90;8.00;;;;;;;3.42;95.97;99344.28;2146644;83;21007;-80
2021/12/19 00:15:45;;;;;;;10.63;8.57;;;;;;;3.44;95.99;99342.66;2146666;83;20932;-80
2021/12/19 00:18:47;;;;;;;8.50;7.60;;;;;;;3.45;95.81;99335.39;2145444;81;20976;-80
2021/12/19 00:21:47;;;;;;;10.53;7.73;;;;;;;3.47;95.88;99327.77;2130348;83;21015;-80
2021/12/19 00:24:48;;;;;;;8.87;7.67;;;;;;;3.49;95.76;99315.81;2130473;84;20996;-79
2021/12/19 00:27:48;;;;;;;8.67;7.40;;;;;;;3.51;95.42;99307.33;2130462;83;21033;-80
2021/12/19 00:30:49;;;;;;;7.30;6.60;;;;;;;3.52;95.48;99299.17;2130240;83;21012;-79
2021/12/19 00:33:49;;;;;;;6.63;5.93;;;;;;;3.52;95.52;99294.02;2130265;83;20988;-79
2021/12/19 00:36:50;;;;;;;9.03;6.70;;;;;;;3.51;95.46;99278.94;2130157;83;20977;-79
2021/12/19 00:39:50;;;;;;;7.20;6.50;;;;;;;3.55;95.46;99258.43;2130144;83;21357;-79
2021/12/19 00:43:01;;;;;;;7.07;6.17;;;;;;;3.55;95.38;99243.83;2129241;83;20933;-80
2021/12/19 00:45:54;;;;;;;6.93;6.07;;;;;;;3.55;95.38;99248.98;2127162;84;21032;-79
2021/12/19 00:48:55;;;;;;;7.73;6.27;;;;;;;3.57;95.83;99251.23;2129230;83;21060;-81
2021/12/19 00:51:55;;;;;;;8.13;6.47;;;;;;;3.57;95.80;99238.33;2129428;84;21376;-80
2021/12/19 00:54:56;;;;;;;8.70;7.07;;;;;;;3.58;95.49;99237.51;2129287;83;21044;-80
2021/12/19 00:57:56;;;;;;;5.97;5.40;;;;;;;3.60;95.36;99247.50;2129088;84;21326;-79
2021/12/19 01:00:57;;;;;;;8.63;6.50;;;;;;;3.62;95.25;99246.28;2128964;83;20996;-80
2021/12/19 01:03:57;;;;;;;11.37;7.43;;;;;;;3.62;95.20;99254.02;2128821;84;21357;-80
2021/12/19 01:07:00;;;;;;;7.20;6.50;;;;;;;3.64;95.07;99257.15;2128577;83;21089;-79
2021/12/19 01:10:00;;;;;;;9.87;7.70;;;;;;;3.67;94.89;99251.24;2128338;83;21112;-79
2021/12/19 01:13:02;;;;;;;10.23;8.07;;;;;;;3.68;94.86;99250.02;2128347;84;20968;-79
2021/12/19 01:16:02;;;;;;;10.57;8.43;;;;;;;3.68;94.91;99244.86;2128483;84;21161;-80
2021/12/19 01:19:03;;;;;;;11.60;8.20;;;;;;;3.70;94.89;99237.18;2127820;83;21574;-81
2021/12/19 01:22:03;;;;;;;9.90;8.40;;;;;;;3.70;95.05;99240.64;2118894;84;20969;-79
2021/12/19 01:25:04;;;;;;;10.10;9.07;;;;;;;3.71;95.03;99230.80;2119017;83;20977;-80
2021/12/19 01:28:04;;;;;;;10.10;9.10;;;;;;;3.71;95.18;99224.34;2118968;84;21025;-80
2021/12/19 01:31:05;;;;;;;9.90;8.73;;;;;;;3.72;95.30;99217.07;2119018;83;21004;-82
2021/12/19 01:34:06;;;;;;;10.23;8.43;;;;;;;3.72;95.51;99218.36;2119623;83;21011;-79
2021/12/19 01:37:06;;;;;;;10.17;9.13;;;;;;;3.72;95.59;99195.13;2119992;83;21009;-83
2021/12/19 01:40:07;;;;;;;14.30;10.20;;;;;;;3.72;95.59;99180.04;2119830;83;20977;-79
2021/12/19 01:43:07;;;;;;;10.70;8.83;;;;;;;3.75;95.52;99181.47;2119936;83;20965;-79
2021/12/19 01:46:08;;;;;;;10.37;9.07;;;;;;;3.76;95.48;99178.95;2119823;84;21374;-80
2021/12/19 01:49:08;;;;;;;7.67;6.67;;;;;;;3.76;95.59;99182.83;2120105;84;21013;-79
2021/12/19 01:52:09;;;;;;;5.83;5.10;;;;;;;3.77;95.41;99182.01;2119674;83;20961;-80
2021/12/19 01:55:09;;;;;;;5.10;4.60;;;;;;;3.79;94.62;99163.59;2120340;83;21346;-80
2021/12/19 01:58:10;;;;;;;8.70;5.07;;;;;;;3.82;94.36;99168.00;2120591;84;21021;-79
2021/12/19 02:01:10;;;;;;;7.87;4.53;;;;;;;3.83;94.29;99161.61;2120177;83;21044;-80
2021/12/19 02:04:11;;;;;;;6.03;4.27;;;;;;;3.85;93.64;99150.06;2120514;84;20996;-80
2021/12/19 02:07:11;;;;;;;4.57;3.93;;;;;;;3.86;93.77;99145.78;2120463;83;20985;-80
2021/12/19 02:10:12;;;;;;;4.53;4.03;;;;;;;3.84;94.04;99127.23;2119929;83;20993;-80
2021/12/19 02:13:13;;;;;;;5.53;5.03;;;;;;;3.85;94.36;99124.23;2120079;83;21029;-79
2021/12/19 02:16:14;;;;;;;4.43;3.43;;;;;;;3.83;94.37;99120.30;2119790;83;20997;-80
2021/12/19 02:19:14;;;;;;;5.03;3.30;;;;;;;3.83;93.56;99122.88;2119593;83;21080;-79
2021/12/19 02:22:15;;;;;;;2.90;2.60;;;;;;;3.83;92.98;99109.97;2119365;83;21009;-80
2021/12/19 02:25:15;;;;;;;3.37;2.47;;;;;;;3.82;93.12;99097.88;2119648;84;20998;-79
2021/12/19 02:28:16;;;;;;;5.37;2.97;;;;;;;3.81;93.29;99096.11;2119222;84;21017;-80
2021/12/19 02:31:16;;;;;;;4.07;3.20;;;;;;;3.80;93.41;99087.02;2119113;83;20989;-79
2021/12/19 02:34:21;;;;;;;5.43;2.93;;;;;;;3.80;93.63;99087.89;2119233;84;21354;-79
2021/12/19 02:37:52;;;;;;;4.60;3.23;;;;;;;3.78;94.09;99081.78;2118790;84;20942;-79
2021/12/19 02:50:01;;;;;;;3.50;3.20;;;;;;;3.79;94.09;99024.16;2118965;83;21084;-80
2021/12/19 02:53:02;;;;;;;3.10;2.50;;;;;;;3.79;94.05;99013.83;2118712;84;20965;-79
2021/12/19 02:56:03;;;;;;;2.87;2.67;;;;;;;3.83;93.75;99010.55;2119192;83;20941;-80
2021/12/19 02:59:03;;;;;;;2.43;2.23;;;;;;;3.85;93.73;99015.78;2119149;84;21064;-79
2021/12/19 03:02:04;;;;;;;2.67;2.20;;;;;;;3.86;93.52;98996.88;2118909;84;21020;-80
2021/12/19 03:05:04;;;;;;;4.50;2.30;;;;;;;3.87;93.42;98990.91;2119014;84;20965;-80
2021/12/19 03:08:07;;;;;;;2.53;2.33;;;;;;;3.88;93.42;98979.75;2119221;83;21431;-79
2021/12/19 03:18:00;;;;;;;4.50;2.60;;;;;;;3.87;93.57;98959.03;2119170;83;20966;-80
2021/12/19 03:21:00;;;;;;;2.50;2.30;;;;;;;3.85;93.66;98953.81;2124515;83;21075;-80
2021/12/19 03:24:01;;;;;;;3.47;2.60;;;;;;;3.84;93.92;98950.34;2129165;84;20989;-80
2021/12/19 03:27:02;;;;;;;3.60;2.30;;;;;;;3.84;94.15;98947.76;2130749;83;21020;-79
2021/12/19 03:30:02;;;;;;;2.90;2.33;;;;;;;3.82;94.30;98936.90;2130658;84;21024;-79
2021/12/19 03:33:03;;;;;;;3.07;2.77;;;;;;;3.80;94.44;98925.22;2130219;83;21464;-81
2021/12/19 03:36:03;;;;;;;3.53;2.47;;;;;;;3.81;94.62;98923.11;2130289;84;21017;-80
2021/12/19 03:39:13;;;;;;;3.30;3.00;;;;;;;3.81;94.82;98916.66;2130607;83;21016;-80
2021/12/19 03:42:06;;;;;;;4.30;2.80;;;;;;;3.81;94.74;98915.36;2128691;83;21021;-81
2021/12/19 03:45:07;;;;;;;3.63;2.87;;;;;;;3.82;95.06;98895.17;2130297;84;20953;-80
2021/12/19 03:48:11;;;;;;;2.80;2.60;;;;;;;3.82;95.49;98888.72;2130220;84;21024;-80
2021/12/19 03:51:10;;;;;;;4.00;3.07;;;;;;;3.84;95.27;98875.45;2129973;83;21397;-79
2021/12/19 03:54:10;;;;;;;2.77;2.53;;;;;;;3.86;95.07;98869.47;2129814;83;21012;-81
2021/12/19 03:57:11;;;;;;;2.87;2.67;;;;;;;3.86;95.35;98864.31;2130235;83;20981;-79
2021/12/19 04:00:12;;;;;;;3.80;2.97;;;;;;;3.87;95.31;98866.95;2130110;83;20990;-81
2021/12/19 04:03:18;;;;;;;3.13;2.77;;;;;;;3.89;95.43;98867.89;2129261;83;21052;-80
2021/12/19 04:06:15;;;;;;;3.50;3.20;;;;;;;3.90;95.37;98852.86;2128384;84;21499;-80
2021/12/19 04:09:15;;;;;;;5.83;3.20;;;;;;;3.91;95.64;98860.20;2129784;83;20992;-80
2021/12/19 04:12:16;;;;;;;4.40;3.30;;;;;;;3.91;96.00;98871.41;2130043;84;21005;-80
2021/12/19 04:15:16;;;;;;;3.33;2.87;;;;;;;3.91;96.07;98876.58;2130277;84;20976;-80
2021/12/19 04:18:17;;;;;;;3.97;3.00;;;;;;;3.94;95.86;98884.44;2130023;84;21040;-81
2021/12/19 04:21:18;;;;;;;3.13;2.87;;;;;;;3.96;95.93;98863.42;2124242;83;21064;-80
2021/12/19 04:24:18;;;;;;;3.30;3.00;;;;;;;3.97;96.02;98863.89;2120785;84;21001;-79
2021/12/19 04:27:19;;;;;;;3.30;3.00;;;;;;;4.00;96.09;98855.38;2120039;84;20989;-79
2021/12/19 04:30:21;;;;;;;3.57;3.27;;;;;;;4.02;96.07;98859.78;2120458;83;20985;-81
2021/12/19 04:33:23;;;;;;;3.80;3.40;;;;;;;4.04;95.96;98850.80;2120519;83;21017;-80
2021/12/19 04:36:30;;;;;;;9.20;5.67;;;;;;;4.06;95.95;98848.74;2120062;84;21020;-82
2021/12/19 04:40:11;;;;;;;11.27;6.57;;;;;;;4.07;95.86;98841.46;2119949;84;21040;-81
2021/12/19 04:53:02;;;;;;;5.97;3.70;;;;;;;4.18;95.70;98818.61;2121065;83;21001;-80
2021/12/19 05:05:43;;;;;;;6.23;4.90;;;;;;;4.25;95.47;98807.67;2100655;84;21036;-82
2021/12/19 05:14:56;;;;;;;7.50;5.40;;;;;;;4.29;95.81;98806.08;2100792;84;21031;-80
2021/12/19 05:18:01;;;;;;;7.47;5.67;;;;;;;4.32;95.62;98807.06;2120613;83;21029;-81
2021/12/19 05:21:04;;;;;;;7.17;4.90;;;;;;;4.34;95.72;98798.98;2123769;84;21440;-80
2021/12/19 05:24:19;;;;;;;10.03;5.47;;;;;;;4.36;95.45;98796.05;2129288;84;21025;-79
2021/12/19 05:27:04;;;;;;;6.47;4.77;;;;;;;4.38;95.49;98793.09;2126144;84;21092;-80
2021/12/19 05:30:04;;;;;;;9.20;5.60;;;;;;;4.41;95.35;98778.11;2129507;83;21373;-80
2021/12/19 05:33:06;;;;;;;7.30;5.70;;;;;;;4.43;95.44;98772.58;2129401;83;21044;-81
2021/12/19 05:45:59;;;;;;;9.53;5.90;;;;;;;4.50;95.30;98773.27;2129274;83;21043;-81
2021/12/19 05:49:01;;;;;;;6.60;5.93;;;;;;;4.53;95.08;98763.44;2129012;83;21020;-80
2021/12/19 05:52:02;;;;;;;10.83;6.17;;;;;;;4.55;94.99;98770.42;2128474;84;20989;-81
2021/12/19 05:55:02;;;;;;;6.97;5.43;;;;;;;4.58;95.25;98765.77;2129333;83;20965;-80
2021/12/19 05:58:03;;;;;;;10.83;6.63;;;;;;;4.54;95.44;98755.73;2129436;84;20989;-81
2021/12/19 06:01:03;;;;;;;8.40;5.90;;;;;;;4.54;95.54;98757.45;2129311;83;20977;-81
2021/12/19 06:04:04;;;;;;;8.40;6.30;;;;;;;4.54;95.63;98763.91;2129118;84;21056;-80
2021/12/19 06:07:04;;;;;;;7.57;6.53;;;;;;;4.56;95.45;98760.96;2129520;84;20972;-80
2021/12/19 06:10:05;;;;;;;7.77;6.27;;;;;;;4.56;95.59;98749.33;2129253;83;21043;-80
2021/12/19 06:13:05;;;;;;;8.73;7.00;;;;;;;4.56;95.73;98757.08;2129485;83;20961;-79
2021/12/19 06:16:07;;;;;;;10.80;7.57;;;;;;;4.57;95.58;98747.20;2129797;84;20991;-79
2021/12/19 06:19:08;;;;;;;10.57;7.90;;;;;;;4.58;95.69;98730.87;2130375;83;21084;-81
2021/12/19 06:22:08;;;;;;;8.50;7.60;;;;;;;4.59;95.69;98724.88;2122855;83;20992;-80
2021/12/19 06:25:09;;;;;;;13.60;7.50;;;;;;;4.58;95.62;98720.12;2120547;84;20973;-81
2021/12/19 06:28:10;;;;;;;11.23;8.27;;;;;;;4.58;95.72;98718.82;2120566;84;20967;-81
2021/12/19 06:31:10;;;;;;;8.43;7.30;;;;;;;4.58;95.72;98715.36;2120444;83;21032;-81
2021/12/19 06:34:11;;;;;;;11.43;7.63;;;;;;;4.56;95.78;98710.14;2120143;84;21020;-82
2021/12/19 06:37:11;;;;;;;10.73;8.90;;;;;;;4.56;95.85;98707.97;2120607;84;20949;-81
2021/12/19 06:40:12;;;;;;;15.93;8.23;;;;;;;4.55;95.62;98714.84;2120271;84;20968;-80
2021/12/19 06:43:12;;;;;;;12.53;8.50;;;;;;;4.57;95.04;98711.02;2119942;83;21341;-81
2021/12/19 06:46:13;;;;;;;11.30;8.30;;;;;;;4.57;95.13;98745.91;2120067;84;20973;-81
2021/12/19 06:49:13;;;;;;;11.80;8.67;;;;;;;4.58;94.89;98726.99;2120009;83;21005;-80
2021/12/19 06:52:14;;;;;;;14.73;10.17;;;;;;;4.58;94.97;98721.82;2119808;83;21379;-82
2021/12/19 06:55:15;;;;;;;12.57;7.87;;;;;;;4.56;95.22;98736.41;2120103;84;21363;-82
2021/12/19 06:58:15;;;;;;;12.47;8.50;;;;;;;4.53;95.09;98747.93;2120100;83;21013;-82
2021/12/19 07:01:16;;;;;;;17.70;8.93;;;;;;;4.53;94.73;98744.94;2120025;83;21014;-81
2021/12/19 07:04:16;;;;;;;12.73;8.00;;;;;;;4.53;94.34;98741.05;2119379;84;21397;-82
2021/12/19 07:07:19;;;;;;;14.47;8.50;;;;;;;4.53;94.26;98744.94;2119476;84;20949;-82
2021/12/19 07:10:19;;;;;;;13.17;8.50;;;;;;;4.53;94.16;98727.25;2118957;83;21096;-83
2021/12/19 07:13:23;;;;;;;12.50;8.97;;;;;;;4.52;94.08;98730.66;2118572;84;21009;-83
2021/12/19 07:16:23;;;;;;;13.43;7.97;;;;;;;4.51;94.29;98727.61;2118538;83;21025;-84
2021/12/19 07:19:24;;;;;;;13.90;7.90;;;;;;;4.46;94.67;98724.88;2119270;83;21380;-84
2021/12/19 07:22:24;;;;;;;16.40;8.17;;;;;;;4.44;94.59;98736.45;2136592;83;21063;-83
2021/12/19 07:25:25;;;;;;;9.93;5.87;;;;;;;4.43;94.01;98732.11;2144457;83;20992;-85
2021/12/19 07:28:25;;;;;;;9.00;6.03;;;;;;;4.46;92.57;98741.67;2144643;83;21020;-84
2021/12/19 07:31:29;;;;;;;11.57;5.90;;;;;;;4.46;92.16;98735.22;2145189;83;21023;-85
2021/12/19 07:34:34;;;;;;;11.17;6.90;;;;;;;4.46;92.55;98735.22;2144903;83;21036;-84
2021/12/19 07:37:36;;;;;;;13.77;7.33;;;;;;;4.44;92.42;98723.53;2145247;83;21068;-84
2021/12/19 07:40:38;;;;;;;13.53;8.50;;;;;;;4.42;92.85;98723.89;2145135;83;21467;-84
2021/12/19 07:43:38;;;;;;;17.27;8.63;;;;;;;4.44;93.00;98723.94;2145164;83;21033;-84
2021/12/19 07:46:39;;;;;;;16.67;7.33;;;;;;;4.44;93.27;98719.66;2145467;83;21000;-84
2021/12/19 07:49:39;;;;;;;12.93;6.87;;;;;;;4.43;93.54;98716.61;2145034;83;20976;-83
2021/12/19 07:52:40;;;;;;;16.97;7.70;;;;;;;4.46;93.40;98709.37;2144982;83;20976;-84
2021/12/19 07:55:40;;;;;;;10.47;6.00;;;;;;;4.46;93.42;98712.83;2145448;83;21481;-83
2021/12/19 07:58:41;;;;;;;14.77;6.67;;;;;;;4.47;92.97;98706.83;2145095;83;20976;-85
2021/12/19 08:01:42;;;;;;;13.17;7.30;;;;;;;4.50;92.94;98698.72;2144467;83;20980;-84
2021/12/19 08:04:42;;;;;;;12.83;9.00;;;;;;;4.45;93.59;98695.56;2145189;83;20988;-83
2021/12/19 08:07:46;;;;;;;14.47;7.80;;;;;;;4.45;93.27;98702.03;2145715;83;20992;-84
2021/12/19 08:13:51;;;;;;;32.93;14.80;;;;;;;4.46;93.10;98693.45;2120180;83;20967;-84
2021/12/19 08:16:51;;;;;;;13.87;7.47;;;;;;;4.45;93.01;98694.27;2146499;83;20976;-84
2021/12/19 08:22:54;;;;;;;10.43;6.97;;;;;;;4.48;92.83;98690.91;2103826;84;21064;-84
2021/12/19 08:25:55;;;;;;;16.23;8.93;;;;;;;4.47;93.23;98677.52;2120482;84;20958;-84
2021/12/19 08:28:55;;;;;;;9.67;6.27;;;;;;;4.46;93.47;98675.35;2119980;84;21397;-86
2021/12/19 08:31:56;;;;;;;11.03;6.13;;;;;;;4.46;93.22;98673.18;2120052;84;20981;-85
2021/12/19 08:34:56;;;;;;;8.53;5.03;;;;;;;4.46;92.45;98688.27;2119933;84;21024;-84
2021/12/19 08:37:57;;;;;;;6.93;4.63;;;;;;;4.47;92.23;98691.73;2119975;84;21045;-84
2021/12/19 08:40:59;;;;;;;7.83;3.60;;;;;;;4.51;91.92;98675.50;2119885;84;20984;-84
2021/12/19 08:43:59;;;;;;;5.47;4.13;;;;;;;4.53;91.78;98683.31;2120164;84;21013;-85
2021/12/19 08:47:00;;;;;;;5.60;4.17;;;;;;;4.53;92.17;98680.31;2120091;83;20989;-84
2021/12/19 08:50:00;;;;;;;7.80;4.30;;;;;;;4.56;92.07;98675.66;2119817;84;21005;-84
2021/12/19 08:53:01;;;;;;;7.97;3.80;;;;;;;4.61;91.84;98677.97;2119947;84;20977;-85
2021/12/19 08:56:02;;;;;;;6.00;3.43;;;;;;;4.59;91.78;98671.46;2119957;83;21032;-83
2021/12/19 08:59:02;;;;;;;7.57;3.93;;;;;;;4.61;91.75;98667.63;2120193;83;21704;-86
2021/12/19 09:02:03;;;;;;;8.07;4.10;;;;;;;4.61;91.82;98669.80;2120573;83;21009;-84
2021/12/19 09:05:03;;;;;;;5.20;3.50;;;;;;;4.58;91.62;98684.34;2119625;84;21140;-85
2021/12/19 09:08:04;;;;;;;6.20;3.43;;;;;;;4.59;90.97;98672.75;2120258;83;21699;-85
2021/12/19 09:11:04;;;;;;;4.23;3.30;;;;;;;4.58;91.04;98688.22;2120806;84;21008;-84
2021/12/19 09:14:05;;;;;;;3.47;3.03;;;;;;;4.57;90.70;98683.88;2120620;83;21046;-84
2021/12/19 09:17:05;;;;;;;3.10;2.80;;;;;;;4.50;91.19;98668.58;2120906;84;21084;-86
2021/12/19 09:20:06;;;;;;;4.57;3.50;;;;;;;4.47;91.38;98673.65;2120799;83;21000;-85
2021/12/19 09:23:07;;;;;;;6.60;4.73;;;;;;;4.43;92.08;98669.20;2141270;83;21047;-85
2021/12/19 09:26:07;;;;;;;6.10;5.43;;;;;;;4.38;92.57;98659.13;2145917;83;21000;-86
2021/12/19 09:29:08;;;;;;;5.53;4.53;;;;;;;4.35;92.93;98652.56;2146698;83;21403;-84
2021/12/19 09:32:08;;;;;;;8.73;4.70;;;;;;;4.34;92.85;98655.98;2147111;83;21304;-85
2021/12/19 09:35:10;;;;;;;7.57;5.40;;;;;;;4.32;92.72;98660.19;2146119;83;21052;-85
2021/12/19 09:38:14;;;;;;;11.93;5.97;;;;;;;4.37;93.14;98650.50;2120058;83;20991;-85
2021/12/19 09:41:17;;;;;;;8.17;4.67;;;;;;;4.47;91.67;98649.09;2146517;83;21408;-86
2021/12/19 09:44:17;;;;;;;8.77;3.87;;;;;;;4.55;91.74;98659.68;2146213;83;21035;-85
2021/12/19 09:47:18;;;;;;;5.43;4.27;;;;;;;4.61;90.80;98643.08;2145923;83;20975;-84
2021/12/19 09:50:18;;;;;;;5.60;4.00;;;;;;;4.67;90.50;98649.73;2145973;83;21066;-85
2021/12/19 09:53:19;;;;;;;7.67;3.93;;;;;;;4.74;90.30;98642.63;2145950;83;21012;-83
2021/12/19 09:56:19;;;;;;;6.73;4.20;;;;;;;4.79;89.55;98678.56;2146291;83;21007;-85
2021/12/19 09:59:20;;;;;;;3.53;3.20;;;;;;;4.86;89.72;98638.25;2145650;83;21028;-82
2021/12/19 10:02:20;;;;;;;7.07;4.10;;;;;;;4.87;88.51;98635.72;2145789;83;20952;-84
2021/12/19 10:05:21;;;;;;;5.63;3.77;;;;;;;4.91;88.31;98627.22;2145141;83;21435;-83
2021/12/19 10:08:21;;;;;;;4.93;3.47;;;;;;;4.88;88.64;98632.72;2145465;83;21031;-83
2021/12/19 10:11:28;;;;;;;6.87;3.60;;;;;;;4.83;88.93;98636.45;2145166;83;21028;-84
2021/12/19 10:14:24;;;;;;;5.37;3.80;;;;;;;4.80;89.17;98613.96;2144098;83;21090;-84
2021/12/19 10:17:25;;;;;;;5.33;3.90;;;;;;;4.77;89.47;98618.16;2145182;83;21020;-84
2021/12/19 10:20:25;;;;;;;5.60;3.67;;;;;;;4.79;89.29;98612.20;2144674;83;21063;-84
2021/12/19 10:23:26;;;;;;;4.53;3.30;;;;;;;4.81;88.43;98625.19;2144202;83;21434;-83
2021/12/19 10:26:26;;;;;;;5.87;3.50;;;;;;;4.79;88.16;98603.57;2144776;83;20969;-83
2021/12/19 10:29:27;;;;;;;6.17;4.23;;;;;;;4.80;88.15;98597.56;2144571;83;21048;-84
2021/12/19 10:32:27;;;;;;;4.80;3.27;;;;;;;4.81;88.37;98600.61;2144777;83;20992;-84
2021/12/19 10:35:28;;;;;;;5.40;4.00;;;;;;;4.81;88.21;98583.81;2145321;83;21047;-84
2021/12/19 10:38:30;;;;;;;4.93;3.37;;;;;;;4.81;88.73;98592.86;2144950;83;20991;-85
2021/12/19 10:41:34;;;;;;;3.53;2.87;;;;;;;4.79;87.65;98586.34;2145301;83;20956;-83
2021/12/19 10:47:52;;;;;;;6.73;4.47;;;;;;;4.79;87.14;98588.93;2145286;83;21022;-83
2021/12/19 10:50:53;;;;;;;5.77;4.07;;;;;;;4.83;87.86;98564.05;2145188;83;21305;-85
2021/12/19 10:53:53;;;;;;;6.60;4.93;;;;;;;4.85;87.87;98560.21;2145595;83;20956;-83
2021/12/19 10:56:54;;;;;;;7.07;4.40;;;;;;;4.86;88.42;98553.79;2145287;83;21004;-82
2021/12/19 10:59:54;;;;;;;5.53;4.07;;;;;;;4.85;87.92;98558.50;2145319;83;21032;-83
2021/12/19 11:02:55;;;;;;;9.50;4.63;;;;;;;4.83;88.31;98542.48;2145484;83;21420;-82
2021/12/19 11:05:55;;;;;;;7.03;5.40;;;;;;;4.80;88.59;98548.44;2145533;83;20983;-82
2021/12/19 11:08:56;;;;;;;11.13;4.80;;;;;;;4.80;88.44;98545.44;2145694;83;20968;-83
2021/12/19 11:11:57;;;;;;;8.77;4.90;;;;;;;4.79;88.36;98531.17;2145400;83;21340;-82
2021/12/19 11:14:57;;;;;;;6.47;4.70;;;;;;;4.82;88.23;98529.09;2144790;83;20996;-81
2021/12/19 11:17:58;;;;;;;8.53;5.17;;;;;;;4.82;88.42;98528.67;2145149;83;21004;-82
2021/12/19 11:20:58;;;;;;;9.37;6.33;;;;;;;4.83;87.45;98523.95;2145687;83;21026;-83
2021/12/19 11:23:59;;;;;;;7.20;5.03;;;;;;;4.82;87.97;98513.57;2145195;83;21015;-82
2021/12/19 11:26:59;;;;;;;9.77;5.90;;;;;;;4.79;87.72;98511.36;2145441;83;20984;-82
2021/12/19 11:30:00;;;;;;;6.77;4.63;;;;;;;4.75;88.13;98503.05;2145420;83;21063;-82
2021/12/19 11:33:00;;;;;;;10.80;6.70;;;;;;;4.71;88.07;98506.38;2145135;83;20972;-82
2021/12/19 11:36:01;;;;;;;6.93;3.97;;;;;;;4.69;88.37;98495.11;2145180;83;21464;-82
2021/12/19 11:39:02;;;;;;;10.27;7.27;;;;;;;4.66;88.25;98495.02;2144737;83;20968;-81
2021/12/19 11:42:02;;;;;;;6.13;4.17;;;;;;;4.67;88.57;98484.27;2144419;83;21000;-82
2021/12/19 11:45:26;;;;;;;6.40;4.20;;;;;;;4.63;88.39;98479.84;2144827;83;20992;-81
2021/12/19 11:48:10;;;;;;;5.60;4.30;;;;;;;4.58;88.41;98484.87;2140767;83;21371;-81
2021/12/19 11:51:08;;;;;;;7.43;4.37;;;;;;;4.68;88.42;98473.09;2144275;81;21045;-81
2021/12/19 11:54:08;;;;;;;5.17;4.00;;;;;;;4.64;87.68;98461.78;2145282;83;21008;-81
2021/12/19 11:57:09;;;;;;;8.07;5.30;;;;;;;4.60;87.80;98465.12;2144815;83;21031;-80
2021/12/19 12:00:09;;;;;;;6.20;4.77;;;;;;;4.58;88.17;98456.44;2145023;83;20929;-81
2021/12/19 12:03:10;;;;;;;12.73;7.93;;;;;;;4.57;88.52;98449.52;2144986;83;20980;-81
2021/12/19 12:06:10;;;;;;;9.40;4.70;;;;;;;4.57;88.19;98448.23;2145305;83;21060;-82
2021/12/19 12:09:11;;;;;;;14.53;6.03;;;;;;;4.59;88.26;98436.64;2145124;83;21063;-83
2021/12/19 12:12:12;;;;;;;7.03;4.03;;;;;;;4.60;88.30;98439.69;2145015;83;21000;-81
2021/12/19 12:15:13;;;;;;;6.37;4.07;;;;;;;4.60;88.15;98430.63;2145187;83;20945;-80
2021/12/19 12:18:13;;;;;;;10.47;5.77;;;;;;;4.59;88.22;98427.17;2145146;83;21016;-82
2021/12/19 12:21:14;;;;;;;13.37;6.30;;;;;;;4.58;88.33;98428.42;2144875;83;21043;-82
2021/12/19 12:24:15;;;;;;;6.10;4.47;;;;;;;4.55;88.50;98425.33;2120713;83;21032;-82
2021/12/19 12:27:16;;;;;;;9.03;4.83;;;;;;;4.57;88.51;98420.20;2118646;83;21361;-82
2021/12/19 12:30:17;;;;;;;7.23;4.27;;;;;;;4.55;88.52;98420.58;2119136;83;21032;-82
2021/12/19 12:33:18;;;;;;;7.20;4.10;;;;;;;4.56;88.61;98428.80;2118676;83;20985;-82
2021/12/19 12:36:18;;;;;;;9.67;4.87;;;;;;;4.55;88.24;98427.92;2119006;83;20997;-81
2021/12/19 12:39:21;;;;;;;6.20;4.80;;;;;;;4.56;88.23;98423.63;2119365;83;20941;-81
2021/12/19 12:42:23;;;;;;;9.47;5.13;;;;;;;4.58;88.12;98414.20;2118935;83;21044;-82
2021/12/19 12:45:23;;;;;;;12.07;5.10;;;;;;;4.60;88.07;98416.00;2118987;83;21036;-82
2021/12/19 12:48:24;;;;;;;9.83;5.30;;;;;;;4.62;88.10;98396.66;2119468;84;20984;-81
2021/12/19 12:51:24;;;;;;;7.23;4.57;;;;;;;4.64;88.15;98394.98;2120511;84;20969;-81
2021/12/19 12:54:29;;;;;;;8.40;5.57;;;;;;;4.60;88.33;98386.27;2120962;83;21005;-82
2021/12/19 12:57:27;;;;;;;10.20;6.37;;;;;;;4.57;88.67;98373.68;2120644;84;20993;-82
2021/12/19 13:00:30;;;;;;;10.00;6.53;;;;;;;4.53;89.21;98374.42;2120904;84;20993;-83
2021/12/19 13:03:31;;;;;;;11.40;6.47;;;;;;;4.51;89.65;98368.34;2120836;83;21056;-82
2021/12/19 13:06:31;;;;;;;16.57;8.73;;;;;;;4.46;89.95;98374.25;2120966;83;21042;-81
2021/12/19 13:09:32;;;;;;;11.30;6.97;;;;;;;4.43;90.16;98365.54;2121051;83;21016;-82
2021/12/19 13:12:32;;;;;;;8.13;5.73;;;;;;;4.42;90.30;98370.25;2120613;84;21440;-81
2021/12/19 13:15:33;;;;;;;7.57;5.57;;;;;;;4.37;90.43;98373.12;2120713;83;20981;-82
2021/12/19 13:18:33;;;;;;;8.90;5.90;;;;;;;4.35;90.23;98349.82;2120972;84;21020;-83
2021/12/19 13:21:34;;;;;;;7.67;5.63;;;;;;;4.36;89.91;98350.70;2120146;84;21008;-83
2021/12/19 13:24:35;;;;;;;8.00;5.37;;;;;;;4.38;90.00;98350.32;2129284;84;21033;-82
2021/12/19 13:27:36;;;;;;;8.30;5.80;;;;;;;4.39;89.56;98343.03;2130113;84;21029;-82
2021/12/19 13:30:36;;;;;;;9.50;5.20;;;;;;;4.41;89.67;98335.78;2130264;83;21000;-81
2021/12/19 13:33:37;;;;;;;7.90;5.20;;;;;;;4.40;89.44;98331.44;2129945;83;21016;-82
2021/12/19 13:36:37;;;;;;;9.13;5.63;;;;;;;4.40;89.55;98327.56;2130492;84;21017;-80
2021/12/19 13:39:38;;;;;;;7.33;4.77;;;;;;;4.37;89.26;98336.52;2130627;83;20995;-83
2021/12/19 13:42:39;;;;;;;6.87;4.73;;;;;;;4.38;88.90;98328.36;2130547;83;21609;-82
2021/12/19 13:45:41;;;;;;;7.67;5.20;;;;;;;4.35;88.66;98331.73;2129993;83;21028;-82
2021/12/19 13:48:42;;;;;;;7.27;4.87;;;;;;;4.34;89.13;98331.27;2129976;84;21048;-82
2021/12/19 13:51:42;;;;;;;9.93;6.00;;;;;;;4.32;88.80;98327.73;2130379;84;21117;-82
2021/12/19 13:54:43;;;;;;;9.50;6.13;;;;;;;4.31;89.04;98335.45;2130154;84;21016;-82
2021/12/19 13:57:43;;;;;;;11.90;6.33;;;;;;;4.29;89.24;98326.78;2130400;83;21028;-81
2021/12/19 14:00:44;;;;;;;10.67;6.23;;;;;;;4.27;89.33;98326.73;2130084;84;21032;-81
2021/12/19 14:03:44;;;;;;;7.37;6.27;;;;;;;4.23;89.82;98331.35;2130506;83;20968;-82
2021/12/19 14:06:46;;;;;;;9.60;6.07;;;;;;;4.21;90.16;98323.98;2130516;83;21052;-81
2021/12/19 14:09:47;;;;;;;9.87;5.50;;;;;;;4.18;90.58;98330.34;2130399;83;21068;-82
2021/12/19 14:13:16;;;;;;;13.87;9.23;;;;;;;4.14;90.52;98335.84;2130483;83;21031;-81
2021/12/19 14:15:54;;;;;;;10.23;7.63;;;;;;;4.13;90.75;98319.01;2126063;84;21032;-79
2021/12/19 14:18:55;;;;;;;10.03;6.97;;;;;;;4.12;90.88;98317.26;2130239;83;21392;-81
2021/12/19 14:21:55;;;;;;;9.93;6.87;;;;;;;4.09;90.76;98306.42;2130375;84;20996;-81
2021/12/19 14:24:56;;;;;;;16.07;9.43;;;;;;;4.09;90.60;98314.59;2130128;83;21020;-82
2021/12/19 14:27:56;;;;;;;9.63;6.87;;;;;;;4.08;90.89;98323.17;2130158;84;20976;-81
2021/12/19 14:30:57;;;;;;;10.60;7.60;;;;;;;4.07;90.82;98316.25;2129976;84;21020;-81
2021/12/19 14:33:59;;;;;;;13.27;7.87;;;;;;;4.07;91.07;98307.21;2129803;83;20953;-80
2021/12/19 14:36:59;;;;;;;9.43;7.07;;;;;;;4.04;91.55;98311.00;2130083;83;21041;-81
2021/12/19 14:40:00;;;;;;;9.63;6.53;;;;;;;4.02;91.09;98323.87;2129798;83;20929;-81
2021/12/19 14:43:00;;;;;;;11.63;7.93;;;;;;;4.02;91.04;98316.12;2129256;84;20992;-81
2021/12/19 14:46:02;;;;;;;10.00;8.13;;;;;;;4.01;91.54;98319.53;2128942;83;20977;-80
2021/12/19 14:49:02;;;;;;;10.70;8.43;;;;;;;4.01;91.71;98311.78;2128875;83;21467;-80
2021/12/19 14:52:03;;;;;;;8.50;7.53;;;;;;;3.98;92.09;98306.53;2128009;84;21012;-80
2021/12/19 14:55:03;;;;;;;9.53;7.60;;;;;;;3.94;92.57;98308.56;2128466;84;21337;-81
2021/12/19 14:58:04;;;;;;;13.97;8.80;;;;;;;3.93;92.57;98305.94;2128858;83;21036;-80
2021/12/19 15:01:04;;;;;;;11.77;9.27;;;;;;;3.90;92.61;98301.97;2129307;83;21012;-80
2021/12/19 15:04:05;;;;;;;17.23;9.33;;;;;;;3.89;92.69;98293.77;2129160;83;21016;-81
2021/12/19 15:07:07;;;;;;;18.13;12.17;;;;;;;3.87;93.23;98285.10;2129142;83;21017;-80
2021/12/19 15:10:07;;;;;;;14.80;10.13;;;;;;;3.87;93.27;98287.69;2129137;83;21028;-80
2021/12/19 15:13:08;;;;;;;19.20;10.90;;;;;;;3.87;93.23;98286.39;2129003;84;21361;-81
2021/12/19 15:16:08;;;;;;;14.13;9.20;;;;;;;3.87;93.26;98283.81;2129043;83;20961;-80
2021/12/19 15:19:09;;;;;;;14.50;9.87;;;;;;;3.87;93.12;98272.19;2129814;84;20941;-80
2021/12/19 15:22:09;;;;;;;11.97;9.23;;;;;;;3.86;93.27;98273.90;2129698;83;20996;-81
2021/12/19 15:25:10;;;;;;;13.30;10.30;;;;;;;3.86;93.36;98273.90;2129523;84;21036;-80